Latest Weather Observations for Thredbo Top Station

IDN60801

Issued at 2:32 pm EST Sunday 26 April 2015 (issued every 30 minutes, with the page automatically refreshed every 10 minutes)

About weather observations | Map of weather stations | Latest weather observations for NSW | Other Formats
Station Details ID: 071032 Name: THREDBO AWS Lat: -36.49 Lon: 148.29 Height: 1957.0 m
Data from the previous 72 hours. | See also: Recent months at Thredbo Top Station
Date/Time
EST
Temp
°C
App
Temp
°C
Dew
Point
Rel
Hum
%
Delta-T
°C
Wind Press
QNH
hPa
Press
MSL
hPa
Rain
since 9 am
mm
Dir
 
Spd
km/h
Gust
km/h
Spd
kts
Gust
kts
26/02:30pm 2.0 -4.2 1.9 99 0.0 WSW 24 33 13 18 - - 0.6
26/02:00pm 3.1 -1.6 3.0 99 0.0 WSW 17 24 9 13 - - 0.6
26/01:30pm 3.3 -2.0 3.2 99 0.0 SW 20 30 11 16 - - 0.4
26/01:00pm 2.9 -2.8 2.8 99 0.0 SSW 22 32 12 17 - - 0.4
26/12:30pm 3.2 -2.1 3.1 99 0.0 SSW 20 28 11 15 - - 0.2
26/12:00pm 2.8 -2.6 2.7 99 0.0 SSW 20 32 11 17 - - 0.2
26/11:30am 2.7 -2.1 2.6 99 0.0 SSW 17 24 9 13 - - 0.2
26/11:00am 2.6 -5.1 2.5 99 0.0 S 32 43 17 23 - - 0.2
26/10:30am 2.1 -4.5 2.0 99 0.0 S 26 37 14 20 - - 0.0
26/10:00am 2.3 -3.5 2.2 99 0.0 S 22 32 12 17 - - 0.0
26/09:30am 2.0 -5.8 1.9 99 0.0 S 32 43 17 23 - - 0.0
26/09:00am 2.3 -3.5 2.2 99 0.0 S 22 33 12 18 - - 5.4
26/08:38am 2.0 -5.8 1.9 99 0.0 S 32 50 17 27 - - 5.4
26/08:30am 2.1 -5.7 2.0 99 0.0 S 32 43 17 23 - - 5.2
26/08:00am 1.9 -4.7 1.8 99 0.0 S 26 39 14 21 - - 5.0
26/07:30am 1.8 -6.6 1.7 99 0.0 S 35 48 19 26 - - 5.0
26/07:17am 1.8 -6.6 1.7 99 0.0 S 35 57 19 31 - - 4.8
26/07:00am 1.8 -6.0 1.7 99 0.0 S 32 41 17 22 - - 4.8
26/06:30am 1.6 -6.2 1.5 99 0.0 S 32 44 17 24 - - 4.6
26/06:00am 1.6 -5.5 1.5 99 0.0 SSW 28 41 15 22 1010.7 1010.3 4.4
26/05:30am 1.4 -5.3 1.3 99 0.0 SSW 26 35 14 19 1010.6 1010.2 4.4
26/05:00am 1.2 -5.6 1.1 99 0.0 SSW 26 35 14 19 1010.4 1010.1 4.4
26/04:30am 1.0 -5.4 0.9 99 0.0 S 24 41 13 22 1010.1 1009.7 4.4
26/04:00am 0.9 -6.3 0.8 99 0.0 S 28 43 15 23 1010.2 1009.8 4.4
26/03:30am 0.9 -3.8 0.8 99 0.0 S 15 24 8 13 1010.1 1009.7 4.2
26/03:00am 0.5 -4.3 0.4 99 0.0 SSW 15 22 8 12 1010.0 1009.6 4.2
26/02:30am 0.6 -4.5 0.5 99 0.0 SSW 17 26 9 14 1010.0 1009.6 4.2
26/02:00am 0.7 -3.7 0.6 99 0.0 SSW 13 19 7 10 1009.8 1009.4 4.2
26/01:30am 0.9 -2.7 0.8 99 0.0 S 9 15 5 8 1010.0 1009.6 4.2
26/01:00am 0.9 -3.4 0.8 99 0.0 S 13 19 7 10 1010.0 1009.6 4.2
26/12:30am 1.1 -2.4 1.0 99 0.0 S 9 15 5 8 1010.0 1009.6 4.2
26/12:00am 1.0 -3.7 0.9 99 0.0 SSE 15 19 8 10 1010.1 1009.7 4.2
 
Date/Time
EST
Temp
°C
App
Temp
°C
Dew
Point
Rel
Hum
%
Delta-T
°C
Wind Press
QNH
hPa
Press
MSL
hPa
Rain
since 9 am
mm
Dir
 
Spd
km/h
Gust
km/h
Spd
kts
Gust
kts
25/11:30pm 1.0 -2.9 0.9 99 0.0 S 11 15 6 8 1010.2 1009.8 4.2
25/11:00pm 1.1 -2.4 1.0 99 0.0 S 9 15 5 8 1010.4 1010.1 4.2
25/10:30pm 0.7 -2.0 0.6 99 0.0 S 4 9 2 5 1010.7 1010.3 4.2
25/10:00pm 0.7 -3.3 0.6 99 0.0 SSE 11 17 6 9 1010.7 1010.3 4.2
25/09:30pm 0.4 -2.7 0.3 99 0.0 SSW 6 9 3 5 1010.6 1010.2 4.2
25/09:00pm 0.5 -3.9 0.4 99 0.0 SSW 13 19 7 10 1010.6 1010.2 4.2
25/08:30pm 0.3 -4.6 -0.3 96 0.2 SW 15 19 8 10 1010.4 1010.1 4.2
25/08:00pm 0.9 -3.9 0.2 95 0.3 WSW 15 17 8 9 1010.1 1009.7 4.2
25/07:30pm 1.0 -3.5 -0.3 91 0.5 SW 13 19 7 10 1009.8 1009.4 4.2
25/07:00pm 1.6 -3.7 -0.3 87 0.8 WSW 17 20 9 11 1009.4 1009.0 4.2
25/06:30pm 1.8 -4.1 -0.6 84 1.0 W 20 26 11 14 1009.0 1008.6 4.2
25/06:00pm 1.6 -3.7 -0.3 87 0.8 WNW 17 24 9 13 1008.8 1008.4 4.2
25/05:30pm 1.9 -2.6 -0.3 85 0.9 W 13 20 7 11 1008.4 1008.0 4.2
25/05:00pm 2.1 -4.4 0.2 87 0.8 NW 24 32 13 17 1008.0 1007.6 4.2
25/04:30pm 1.4 -4.2 1.1 98 0.1 NW 20 28 11 15 1007.8 1007.4 4.2
25/04:00pm 0.5 -6.7 0.4 99 0.0 NW 28 35 15 19 1008.6 1008.2 4.2
25/03:30pm 0.9 -4.2 0.8 99 0.0 WNW 17 28 9 15 1008.5 1008.1 4.2
25/03:00pm 1.7 -4.2 1.6 99 0.0 W 22 32 12 17 1008.6 1008.2 4.2
25/02:30pm 1.7 -4.3 1.0 95 0.3 W 22 30 12 16 1008.2 1007.7 4.0
25/02:00pm 1.4 -4.2 1.3 99 0.0 NNW 20 26 11 14 1008.0 1007.6 3.8
25/01:30pm 0.9 -6.3 0.8 99 0.0 N 28 37 15 20 1008.7 1008.3 3.6
25/01:00pm 1.7 -4.6 1.4 98 0.1 N 24 32 13 17 1008.4 1008.0 3.4
25/12:30pm 1.1 -6.1 0.8 98 0.1 N 28 35 15 19 1008.4 1008.0 3.4
25/12:20pm 1.2 -7.3 0.8 97 0.2 N 35 54 19 29 1008.3 1007.8 3.4
25/12:06pm 1.3 -8.4 0.7 96 0.2 NNW 41 61 22 33 1008.8 1008.4 3.4
25/12:00pm 1.2 -7.6 1.1 99 0.0 N 37 48 20 26 1009.1 1008.7 3.2
25/11:30am 1.0 -6.2 0.9 99 0.0 NNW 28 41 15 22 1009.6 1009.3 2.6
25/11:00am 1.0 -5.0 0.9 99 0.0 NNW 22 28 12 15 1010.1 1009.7 2.0
25/10:30am 0.7 -6.1 0.6 99 0.0 N 26 39 14 21 1010.1 1009.7 1.2
25/10:00am 3.6 -3.2 3.2 97 0.2 N 28 33 15 18 1009.4 1009.0 0.4
25/09:30am 2.2 -4.8 2.1 99 0.0 N 28 35 15 19 1009.5 1009.1 0.4
25/09:00am 2.2 -3.6 2.1 99 0.0 N 22 30 12 16 1009.6 1009.3 16.0
25/08:30am 2.4 -3.0 2.3 99 0.0 NNW 20 26 11 14 1009.5 1009.1 16.0
25/08:00am 2.4 -1.8 1.7 95 0.3 N 13 17 7 9 1009.3 1008.9 16.0
25/07:30am 1.6 -1.9 1.5 99 0.0 NNW 9 13 5 7 1009.2 1008.8 16.0
25/07:00am 0.7 -3.7 0.6 99 0.0 NNW 13 13 7 7 1008.7 1008.3 16.0
25/06:30am 0.5 -3.9 0.4 99 0.0 NNW 13 17 7 9 1008.6 1008.2 16.0
25/06:00am 0.8 -2.8 0.7 99 0.0 NNW 9 13 5 7 1008.4 1008.0 16.0
25/05:30am 0.2 -3.5 0.1 99 0.0 NNW 9 11 5 6 1008.3 1007.8 16.0
25/05:00am 1.0 -2.0 0.9 99 0.0 NW 6 7 3 4 1008.2 1007.7 16.0
25/04:30am 2.1 -1.3 2.0 99 0.0 NW 9 17 5 9 1008.4 1008.0 16.0
25/04:00am 2.2 -1.9 2.1 99 0.0 WNW 13 20 7 11 1008.6 1008.2 16.0
25/03:30am 2.3 -1.8 2.2 99 0.0 WNW 13 20 7 11 1008.4 1008.0 16.0
25/03:00am 2.2 -1.9 2.1 99 0.0 NW 13 28 7 15 1008.3 1007.8 16.0
25/02:30am 2.2 -3.1 2.1 99 0.0 NW 19 32 10 17 1008.3 1007.8 16.0
25/02:00am 2.2 -4.8 2.1 99 0.0 NW 28 46 15 25 1008.3 1007.8 16.0
25/01:31am 1.9 -6.1 1.8 99 0.0 NW 33 52 18 28 1007.9 1007.5 16.0
25/01:30am 1.9 -6.5 1.8 99 0.0 NW 35 52 19 28 1007.9 1007.5 16.0
25/01:09am 2.4 -5.9 2.3 99 0.0 NW 35 54 19 29 1008.0 1007.6 16.0
25/01:00am 2.2 -6.5 2.1 99 0.0 NW 37 52 20 28 1008.0 1007.6 16.0
25/12:54am 2.6 -6.1 2.3 98 0.1 NW 37 56 20 30 1008.0 1007.6 16.0
25/12:30am 2.1 -7.9 2.0 99 0.0 NW 44 57 24 31 1008.3 1007.8 16.0
25/12:22am 2.3 -7.5 2.0 98 0.1 NW 43 61 23 33 1008.3 1007.8 16.0
25/12:00am 2.2 -8.2 2.1 99 0.0 NW 46 63 25 34 1008.2 1007.7 16.0
 
Date/Time
EST
Temp
°C
App
Temp
°C
Dew
Point
Rel
Hum
%
Delta-T
°C
Wind Press
QNH
hPa
Press
MSL
hPa
Rain
since 9 am
mm
Dir
 
Spd
km/h
Gust
km/h
Spd
kts
Gust
kts
24/11:37pm 2.5 -8.6 2.4 99 0.0 NW 50 69 27 37 1008.0 1007.6 16.0
24/11:30pm 2.5 -9.0 2.4 99 0.0 NW 52 67 28 36 1007.9 1007.5 16.0
24/11:02pm 2.9 -7.4 2.8 99 0.0 NW 46 65 25 35 1008.0 1007.6 16.0
24/11:00pm 3.0 -7.6 2.9 99 0.0 NW 48 65 26 35 1008.2 1007.7 16.0
24/10:30pm 3.1 -6.6 3.0 99 0.0 NW 43 63 23 34 1008.2 1007.7 16.0
24/10:00pm 3.2 -7.0 3.1 99 0.0 NW 46 67 25 36 1008.2 1007.7 16.0
24/09:39pm 3.2 -7.0 3.1 99 0.0 NW 46 65 25 35 1008.0 1007.6 16.0
24/09:30pm 3.2 -7.0 3.1 99 0.0 NW 46 63 25 34 1008.0 1007.6 16.0
24/09:06pm 3.2 -6.6 3.1 99 0.0 NW 44 63 24 34 1008.2 1007.7 16.0
24/09:00pm 3.3 -6.5 3.2 99 0.0 NW 44 61 24 33 1008.2 1007.7 16.0
24/08:30pm 3.2 -5.7 3.1 99 0.0 NW 39 63 21 34 1008.2 1007.7 16.0
24/08:00pm 3.3 -6.3 3.2 99 0.0 NW 43 63 23 34 1008.0 1007.6 16.0
24/07:41pm 3.7 -7.2 3.6 99 0.0 NW 50 72 27 39 1007.7 1007.3 16.0
24/07:38pm 3.9 -7.0 3.8 99 0.0 NNW 50 72 27 39 1007.7 1007.3 16.0
24/07:30pm 4.1 -4.6 4.0 99 0.0 NW 39 69 21 37 1007.5 1007.0 16.0
24/07:00pm 3.7 -6.4 3.6 99 0.0 NW 46 67 25 36 1007.4 1006.9 16.0
24/06:32pm 3.5 -7.0 3.4 99 0.0 NW 48 67 26 36 1006.9 1006.4 16.0
24/06:30pm 3.5 -7.4 3.4 99 0.0 NW 50 67 27 36 1007.0 1006.5 16.0
24/06:00pm 3.8 -7.8 3.7 99 0.0 NW 54 67 29 36 1007.0 1006.5 16.0
24/05:41pm 3.7 -6.1 3.6 99 0.0 NW 44 65 24 35 1007.0 1006.5 16.0
24/05:30pm 3.8 -6.3 3.7 99 0.0 NW 46 59 25 32 1006.9 1006.4 16.0
24/05:00pm 4.5 -5.5 4.4 99 0.0 NNW 46 65 25 35 1007.1 1006.7 15.8
24/04:30pm 4.6 -5.4 4.5 99 0.0 NW 46 67 25 36 1006.7 1006.2 13.2
24/04:00pm 4.3 -5.7 4.2 99 0.0 NW 46 65 25 35 1006.6 1006.1 13.0
24/03:39pm 4.3 -5.3 4.2 99 0.0 NNW 44 67 24 36 1006.6 1006.1 12.8
24/03:30pm 4.2 -5.3 4.1 99 0.0 NW 43 59 23 32 1006.6 1006.1 12.6
24/03:09pm 4.3 -5.1 4.2 99 0.0 NW 43 61 23 33 1006.7 1006.2 12.6
24/03:00pm 4.1 -6.7 4.0 99 0.0 NNW 50 63 27 34 1006.8 1006.3 12.6
24/02:30pm 4.7 -2.8 4.6 99 0.0 NW 33 52 18 28 1006.8 1006.3 12.4
24/02:04pm 4.6 -3.6 4.5 99 0.0 NW 37 56 20 30 1006.8 1006.3 12.4
24/02:00pm 4.6 -4.0 4.5 99 0.0 NW 39 56 21 30 1006.8 1006.3 12.4
24/01:30pm 5.1 -3.8 5.0 99 0.0 NW 41 59 22 32 1006.7 1006.2 12.2
24/01:06pm 5.6 -1.5 5.5 99 0.0 NW 32 50 17 27 1006.6 1006.1 10.8
24/01:00pm 6.2 -0.4 6.1 99 0.0 NW 30 44 16 24 1006.6 1006.1 10.2
24/12:44pm 6.2 -1.3 6.1 99 0.0 NNW 35 54 19 29 1006.7 1006.2 8.8
24/12:30pm 6.1 -1.8 6.0 99 0.0 NNW 37 52 20 28 1006.9 1006.4 8.4
24/12:22pm 6.2 -0.4 6.1 99 0.0 NNW 30 48 16 26 1006.9 1006.4 8.2
24/12:00pm 6.3 -0.3 6.2 99 0.0 NW 30 41 16 22 1007.5 1007.0 7.6
24/11:30am 6.4 -0.1 6.3 99 0.0 NNW 30 44 16 24 1007.9 1007.5 6.2
24/11:00am 6.3 -0.3 6.2 99 0.0 NW 30 44 16 24 1008.2 1007.7 4.4
24/10:30am 6.7 -1.5 6.6 99 0.0 NNW 39 54 21 29 1008.0 1007.6 2.6
24/10:00am 6.7 -0.7 6.6 99 0.0 NNW 35 50 19 27 1008.0 1007.6 1.2
24/09:30am 6.5 -1.7 6.4 99 0.0 NNW 39 48 21 26 1008.4 1008.0 0.2
24/09:00am 6.2 -2.5 6.1 99 0.0 NNW 41 52 22 28 1008.7 1008.3 8.4
24/08:30am 6.4 -1.9 6.3 99 0.0 N 39 50 21 27 1008.5 1008.1 8.0
24/08:00am 6.5 -2.1 6.4 99 0.0 NNW 41 52 22 28 1009.0 1008.6 7.8
24/07:30am 6.5 -0.4 6.4 99 0.0 NNW 32 39 17 21 1009.1 1008.7 7.6
24/07:00am 6.5 -0.4 6.4 99 0.0 NNW 32 41 17 22 1008.5 1008.1 7.6
24/06:30am 6.6 -0.3 6.5 99 0.0 NNW 32 43 17 23 1008.4 1008.0 6.8
24/06:00am 6.6 0.1 6.5 99 0.0 NW 30 44 16 24 1008.4 1008.0 6.4
24/05:30am 6.8 0.0 6.7 99 0.0 NNW 32 44 17 24 1008.6 1008.2 6.4
24/05:11am 7.0 1.0 6.9 99 0.0 NNW 28 54 15 29 1008.8 1008.4 6.2
24/05:00am 6.8 1.1 6.7 99 0.0 NW 26 39 14 21 1008.7 1008.3 5.8
24/04:30am 6.8 0.0 6.7 99 0.0 NNW 32 44 17 24 1009.1 1008.7 5.4
24/04:00am 6.6 -1.6 6.5 99 0.0 NNW 39 48 21 26 1009.0 1008.6 5.4
24/03:30am 6.8 -1.8 6.7 99 0.0 NNW 41 50 22 27 1009.0 1008.6 5.4
24/03:00am 6.8 -0.6 6.7 99 0.0 NNW 35 46 19 25 1009.8 1009.4 5.2
24/02:30am 6.6 -0.3 6.5 99 0.0 NNW 32 39 17 21 1010.2 1009.8 5.2
24/02:00am 6.0 -0.6 5.9 99 0.0 NW 30 35 16 19 1010.6 1010.2 5.0
24/01:30am 6.3 0.1 6.2 99 0.0 NW 28 37 15 20 1010.8 1010.4 5.0
24/01:00am 6.8 2.2 6.7 99 0.0 NNW 20 26 11 14 1011.2 1010.9 5.0
24/12:30am 6.8 3.6 6.7 99 0.0 NNW 13 19 7 10 1011.6 1011.3 5.0
24/12:00am 5.5 2.0 5.4 99 0.0 WNW 13 15 7 8 1011.9 1011.6 5.0
 
Date/Time
EST
Temp
°C
App
Temp
°C
Dew
Point
Rel
Hum
%
Delta-T
°C
Wind Press
QNH
hPa
Press
MSL
hPa
Rain
since 9 am
mm
Dir
 
Spd
km/h
Gust
km/h
Spd
kts
Gust
kts
23/11:30pm 5.2 3.0 5.1 99 0.0 NNW 6 11 3 6 1012.4 1012.1 5.0
23/11:00pm 5.0 1.8 4.9 99 0.0 NNW 11 15 6 8 1012.6 1012.3 5.0
23/10:30pm 5.5 1.6 5.4 99 0.0 NNW 15 17 8 9 1013.0 1012.7 5.0
23/10:00pm 5.9 3.6 5.8 99 0.0 N 7 11 4 6 1013.1 1012.8 5.0
23/09:30pm 6.2 4.2 6.1 99 0.0 N 6 9 3 5 1013.6 1013.4 5.0
23/09:00pm 6.4 4.8 6.3 99 0.0 N 4 6 2 3 1014.1 1013.9 4.8
23/08:30pm 6.4 3.8 6.3 99 0.0 NE 9 13 5 7 1014.3 1014.1 4.8
23/08:00pm 6.4 3.8 6.3 99 0.0 ENE 9 15 5 8 1014.3 1014.1 4.8
23/07:30pm 7.1 6.4 7.0 99 0.1 CALM 0 2 0 1 1014.3 1014.1 4.6
23/07:00pm 7.2 5.4 7.1 99 0.1 SSE 6 11 3 6 1014.3 1014.1 4.6
23/06:30pm 7.1 5.6 7.0 99 0.1 SE 4 6 2 3 1014.3 1014.1 4.2
23/06:00pm 7.1 5.6 7.0 99 0.1 ESE 4 7 2 4 1014.1 1013.9 4.2
23/05:30pm 7.2 5.4 7.1 99 0.1 ESE 6 11 3 6 1014.0 1013.7 4.2
23/05:00pm 7.4 4.7 7.3 99 0.1 SE 11 19 6 10 1013.8 1013.5 4.2
23/04:30pm 7.6 4.9 7.5 99 0.1 ESE 11 15 6 8 1013.6 1013.4 4.0
23/04:00pm 7.9 5.3 7.8 99 0.1 SSE 11 20 6 11 1013.9 1013.6 4.0
23/03:30pm 8.2 5.3 8.1 99 0.1 SE 13 22 7 12 1014.1 1013.9 4.0
23/03:00pm 8.2 5.3 8.1 99 0.1 SE 13 20 7 11 - - 4.0

Other Formats:

Comma delimited format used in spreadsheet applications
http://www.bom.gov.au/fwo/IDN60801/IDN60801.95909.axf

JavaScript Object Notation format (JSON) in row-major order
http://www.bom.gov.au/fwo/IDN60801/IDN60801.95909.json